Time;durP1;ratioP1;P1;durP2;ratioP2;P2;SDS_P1;SDS_P2;PMS_P1;PMS_P2;Temp;Humidity;BMP_temperature;BMP_pressure;BME280_temperature;BME280_humidity;BME280_pressure;Samples;Min_cycle;Max_cycle;Signal;HPM_P1;HPM_P2
2023/03/06 00:02:36;;;;;;;11.47;7.17;;;-0.20;99.90;;;;;;8362171;28;20194;-63
2023/03/06 00:06:37;;;;;;;11.80;7.17;;;-0.10;99.90;;;;;;8364756;28;21303;-63
2023/03/06 00:10:39;;;;;;;12.50;6.83;;;-0.10;99.90;;;;;;8362293;28;20197;-63
2023/03/06 00:14:39;;;;;;;9.20;5.83;;;0.00;99.90;;;;;;8365171;28;20185;-63
2023/03/06 00:18:42;;;;;;;10.13;7.00;;;0.00;99.90;;;;;;8368797;28;20227;-66
2023/03/06 00:22:43;;;;;;;14.13;7.10;;;0.00;99.90;;;;;;8361300;28;20259;-64
2023/03/06 00:26:44;;;;;;;12.53;7.07;;;0.10;99.90;;;;;;8363483;28;20217;-63
2023/03/06 00:30:46;;;;;;;10.97;6.93;;;0.10;99.90;;;;;;8369343;28;20177;-63
2023/03/06 00:34:52;;;;;;;10.47;6.87;;;0.20;99.90;;;;;;8359773;28;20221;-63
2023/03/06 00:38:53;;;;;;;11.33;7.97;;;0.20;99.90;;;;;;8363705;28;20190;-63
2023/03/06 00:42:53;;;;;;;11.20;7.70;;;0.20;99.90;;;;;;8363528;28;20275;-63
2023/03/06 00:46:54;;;;;;;13.47;7.70;;;0.20;99.90;;;;;;8363523;28;20209;-64
2023/03/06 00:50:58;;;;;;;9.17;7.00;;;0.20;99.90;;;;;;8361957;28;20496;-63
2023/03/06 00:54:58;;;;;;;13.50;7.37;;;0.30;99.90;;;;;;8363264;28;20185;-63
2023/03/06 00:58:59;;;;;;;13.27;6.93;;;0.30;99.90;;;;;;8359885;28;20193;-63
2023/03/06 01:03:00;;;;;;;13.67;6.40;;;0.20;99.90;;;;;;8360925;28;20181;-63
2023/03/06 01:07:01;;;;;;;11.60;6.80;;;0.20;99.90;;;;;;8365202;28;20217;-63
2023/03/06 01:11:01;;;;;;;10.33;6.53;;;0.20;99.90;;;;;;8362888;28;20204;-63
2023/03/06 01:15:03;;;;;;;9.73;6.07;;;0.20;99.90;;;;;;8363932;28;20185;-63
2023/03/06 01:19:04;;;;;;;10.17;5.73;;;0.20;99.90;;;;;;8364985;28;20197;-63
2023/03/06 01:23:05;;;;;;;9.37;6.00;;;0.20;99.90;;;;;;8365850;28;20268;-63
2023/03/06 01:27:06;;;;;;;8.97;5.23;;;0.30;99.90;;;;;;8366326;28;20232;-63
2023/03/06 01:31:07;;;;;;;8.80;5.70;;;0.30;99.90;;;;;;8362192;28;20613;-64
2023/03/06 01:35:09;;;;;;;9.73;5.40;;;0.30;99.90;;;;;;8359626;28;20223;-63
2023/03/06 01:39:10;;;;;;;7.90;5.20;;;0.40;99.90;;;;;;8359768;28;20409;-64
2023/03/06 01:43:24;;;;;;;6.13;4.00;;;0.40;99.90;;;;;;8362260;28;20205;-64
2023/03/06 01:47:26;;;;;;;9.70;6.03;;;0.40;99.90;;;;;;8360560;28;20557;-63
2023/03/06 01:51:34;;;;;;;7.30;5.93;;;0.40;99.90;;;;;;8373241;28;20177;-63
2023/03/06 01:55:36;;;;;;;11.83;7.97;;;0.40;99.90;;;;;;8358309;28;20200;-63
2023/03/06 01:59:38;;;;;;;10.37;7.87;;;0.50;99.90;;;;;;8363292;28;20193;-63
2023/03/06 02:03:41;;;;;;;12.77;9.33;;;0.50;99.90;;;;;;8360706;28;20185;-63
2023/03/06 02:07:44;;;;;;;15.40;11.10;;;0.50;99.90;;;;;;8360544;28;20251;-63
2023/03/06 02:11:45;;;;;;;15.60;10.67;;;0.50;99.90;;;;;;8356598;28;20245;-64
2023/03/06 02:15:45;;;;;;;14.90;10.33;;;0.60;99.90;;;;;;8362416;28;20262;-63
2023/03/06 02:20:06;;;;;;;13.63;9.70;;;0.70;99.90;;;;;;8359272;28;20224;-63
2023/03/06 02:24:27;;;;;;;14.40;9.63;;;0.70;99.90;;;;;;8361527;28;20305;-64
2023/03/06 02:28:28;;;;;;;12.17;8.20;;;0.80;99.90;;;;;;8359157;28;20189;-64
2023/03/06 02:32:29;;;;;;;13.47;9.73;;;0.80;99.90;;;;;;8362611;28;20281;-64
2023/03/06 02:36:32;;;;;;;14.17;8.87;;;0.80;99.90;;;;;;8359532;28;20213;-64
2023/03/06 02:40:33;;;;;;;14.40;9.33;;;0.90;99.90;;;;;;8377091;28;20181;-63
2023/03/06 02:44:34;;;;;;;13.20;9.80;;;0.90;99.90;;;;;;8359799;28;20243;-64
2023/03/06 02:48:35;;;;;;;11.63;8.73;;;0.90;99.90;;;;;;8361084;28;20277;-63
2023/03/06 02:52:36;;;;;;;12.47;8.83;;;1.00;99.90;;;;;;8358550;28;20185;-64
2023/03/06 02:56:37;;;;;;;12.33;9.20;;;1.00;99.90;;;;;;8369839;28;20259;-64
2023/03/06 03:00:38;;;;;;;13.23;9.13;;;1.00;99.90;;;;;;8366001;28;20196;-64
2023/03/06 03:04:38;;;;;;;12.20;8.67;;;1.00;99.90;;;;;;8368219;28;20216;-64
2023/03/06 03:08:39;;;;;;;13.10;8.97;;;1.10;99.90;;;;;;8368016;28;20185;-63
2023/03/06 03:12:40;;;;;;;13.17;8.90;;;1.00;99.90;;;;;;8366691;28;20287;-63
2023/03/06 03:16:41;;;;;;;13.60;10.00;;;1.00;99.90;;;;;;8368878;28;20220;-64
2023/03/06 03:20:42;;;;;;;13.63;10.37;;;1.10;99.90;;;;;;8368386;28;20193;-63
2023/03/06 03:24:43;;;;;;;12.90;9.73;;;1.10;99.90;;;;;;8369544;28;20243;-63
2023/03/06 03:28:44;;;;;;;12.37;10.03;;;1.10;99.90;;;;;;8367592;28;20189;-63
2023/03/06 03:32:45;;;;;;;12.17;9.23;;;1.20;99.90;;;;;;8365984;28;20209;-63
2023/03/06 03:36:46;;;;;;;11.90;9.07;;;1.10;99.90;;;;;;8367022;28;20209;-63
2023/03/06 03:40:46;;;;;;;11.10;8.93;;;1.20;99.90;;;;;;8369018;28;20273;-63
2023/03/06 03:44:47;;;;;;;11.83;9.60;;;1.20;99.90;;;;;;8364774;28;20214;-64
2023/03/06 03:48:48;;;;;;;11.80;8.87;;;1.20;99.90;;;;;;8358009;28;20188;-63
2023/03/06 03:52:49;;;;;;;10.27;8.60;;;1.20;99.90;;;;;;8369002;28;20174;-63
2023/03/06 03:56:49;;;;;;;11.23;8.23;;;1.20;99.90;;;;;;8364343;28;20182;-64
2023/03/06 04:00:50;;;;;;;11.03;8.27;;;1.10;99.90;;;;;;8369921;28;20295;-64
2023/03/06 04:04:51;;;;;;;10.67;7.93;;;1.10;99.90;;;;;;8364815;28;20273;-64
2023/03/06 04:08:52;;;;;;;10.47;7.17;;;1.10;99.90;;;;;;8369857;28;20177;-64
2023/03/06 04:12:53;;;;;;;10.63;8.53;;;1.10;99.90;;;;;;8361944;28;20242;-63
2023/03/06 04:16:54;;;;;;;10.20;7.87;;;1.10;99.90;;;;;;8365984;28;20460;-64
2023/03/06 04:20:55;;;;;;;14.57;8.80;;;1.10;99.90;;;;;;8362942;28;20218;-64
2023/03/06 04:24:55;;;;;;;12.20;7.67;;;1.10;99.90;;;;;;8364624;28;20332;-63
2023/03/06 04:28:57;;;;;;;9.50;7.23;;;1.10;99.90;;;;;;8360733;28;20182;-64
2023/03/06 04:32:58;;;;;;;11.27;7.27;;;1.00;99.90;;;;;;8363008;28;20195;-64
2023/03/06 04:36:59;;;;;;;9.63;6.57;;;1.00;99.90;;;;;;8359458;28;20209;-64
2023/03/06 04:41:00;;;;;;;8.93;6.47;;;1.10;99.90;;;;;;8362433;28;20184;-63
2023/03/06 04:45:00;;;;;;;9.20;6.67;;;1.10;99.90;;;;;;8362324;28;20205;-63
2023/03/06 04:49:01;;;;;;;10.10;6.53;;;1.10;99.90;;;;;;8363351;28;20265;-64
2023/03/06 04:53:03;;;;;;;9.37;6.63;;;1.10;99.90;;;;;;8358076;28;20185;-64
2023/03/06 04:57:04;;;;;;;8.67;6.03;;;1.10;99.90;;;;;;8360060;28;20186;-64
2023/03/06 05:01:05;;;;;;;8.40;5.90;;;1.10;99.90;;;;;;8361623;28;20217;-64
2023/03/06 05:05:06;;;;;;;10.03;6.07;;;1.10;99.90;;;;;;8360317;28;20193;-64
2023/03/06 05:09:07;;;;;;;8.03;6.03;;;1.10;99.90;;;;;;8355946;28;20193;-64
2023/03/06 05:13:08;;;;;;;11.13;6.37;;;1.10;99.90;;;;;;8363383;28;20178;-64
2023/03/06 05:17:08;;;;;;;7.00;5.43;;;1.10;99.90;;;;;;8360777;28;20182;-63
2023/03/06 05:21:09;;;;;;;7.50;5.57;;;1.10;99.90;;;;;;8364360;28;20192;-64
2023/03/06 05:25:10;;;;;;;9.30;6.40;;;1.10;99.90;;;;;;8356786;28;20248;-64
2023/03/06 05:29:11;;;;;;;8.37;6.20;;;1.20;99.90;;;;;;8362081;28;20184;-64
2023/03/06 05:33:12;;;;;;;8.40;5.50;;;1.10;99.90;;;;;;8361227;28;20188;-63
2023/03/06 05:37:13;;;;;;;9.43;6.23;;;1.20;99.90;;;;;;8363280;28;20742;-63
2023/03/06 05:41:14;;;;;;;10.17;6.57;;;1.20;99.90;;;;;;8359493;28;20258;-63
2023/03/06 05:45:15;;;;;;;8.57;6.03;;;1.20;99.90;;;;;;8361481;28;20367;-68
2023/03/06 05:49:16;;;;;;;10.17;7.00;;;1.20;99.90;;;;;;8363662;28;20272;-68
2023/03/06 05:53:16;;;;;;;10.60;7.47;;;1.30;99.90;;;;;;8365115;28;20181;-68
2023/03/06 05:57:22;;;;;;;10.73;7.20;;;1.30;99.90;;;;;;8364919;28;20219;-68
2023/03/06 06:01:24;;;;;;;11.07;6.73;;;1.40;99.90;;;;;;8363866;28;20186;-68
2023/03/06 06:05:24;;;;;;;11.67;7.17;;;1.40;99.90;;;;;;8362663;28;20214;-67
2023/03/06 06:09:26;;;;;;;11.83;6.97;;;1.50;99.90;;;;;;8364651;28;20246;-68
2023/03/06 06:13:27;;;;;;;12.93;7.43;;;1.50;99.90;;;;;;8357754;28;20190;-68
2023/03/06 06:17:28;;;;;;;16.00;9.40;;;1.50;99.90;;;;;;8362071;28;20193;-68
2023/03/06 06:21:29;;;;;;;12.33;7.80;;;1.50;99.90;;;;;;8364574;28;20205;-69
2023/03/06 06:25:29;;;;;;;12.60;7.67;;;1.50;99.90;;;;;;8363158;28;20241;-69
2023/03/06 06:29:31;;;;;;;13.67;8.47;;;1.60;99.90;;;;;;8363067;28;20220;-70
2023/03/06 06:33:32;;;;;;;11.57;8.37;;;1.60;99.90;;;;;;8363291;28;20197;-69
2023/03/06 06:37:33;;;;;;;16.07;8.20;;;1.70;99.90;;;;;;8371388;28;20265;-69
2023/03/06 06:41:34;;;;;;;12.83;7.80;;;1.80;99.90;;;;;;8369302;28;20363;-69
2023/03/06 06:45:35;;;;;;;11.23;7.87;;;1.90;99.90;;;;;;8371382;28;20217;-70
2023/03/06 06:49:36;;;;;;;14.90;8.53;;;1.90;99.90;;;;;;8362804;28;20185;-70
2023/03/06 06:53:37;;;;;;;12.87;7.80;;;1.90;99.90;;;;;;8369625;28;20186;-70
2023/03/06 06:57:39;;;;;;;11.67;7.73;;;2.00;99.90;;;;;;8364608;28;20266;-70
2023/03/06 07:01:40;;;;;;;12.40;6.70;;;2.10;99.90;;;;;;8375455;28;20466;-70
2023/03/06 07:05:41;;;;;;;11.63;7.43;;;2.20;99.90;;;;;;8366103;28;20241;-71
2023/03/06 07:09:42;;;;;;;10.27;6.73;;;2.30;99.90;;;;;;8367978;28;20182;-70
2023/03/06 07:13:44;;;;;;;8.80;6.00;;;2.40;99.90;;;;;;8363793;28;20217;-70
2023/03/06 07:17:45;;;;;;;9.47;6.50;;;2.60;99.90;;;;;;8369981;28;20596;-70
2023/03/06 07:21:46;;;;;;;8.43;6.37;;;2.70;87.10;;;;;;8369163;28;20185;-70
2023/03/06 07:25:47;;;;;;;9.47;6.80;;;2.80;1.00;;;;;;8366678;28;20198;-70
2023/03/06 07:29:48;;;;;;;9.97;6.80;;;3.00;99.90;;;;;;8365554;28;20181;-70
2023/03/06 07:33:50;;;;;;;9.73;6.43;;;3.00;1.00;;;;;;8363801;28;20230;-70
2023/03/06 07:37:51;;;;;;;10.10;6.17;;;3.00;99.90;;;;;;8365275;28;20205;-70
2023/03/06 07:41:52;;;;;;;8.93;6.00;;;3.10;99.90;;;;;;8367953;28;20195;-71
2023/03/06 07:45:57;;;;;;;7.23;6.10;;;3.10;99.90;;;;;;8362550;28;20242;-70
2023/03/06 07:50:01;;;;;;;10.93;7.33;;;3.10;99.90;;;;;;8365286;28;20177;-69
2023/03/06 07:54:02;;;;;;;11.17;6.77;;;3.10;99.90;;;;;;8368092;28;20278;-69
2023/03/06 07:58:03;;;;;;;8.50;6.00;;;3.10;99.90;;;;;;8364419;28;20181;-69
2023/03/06 08:02:04;;;;;;;9.03;6.43;;;3.00;95.30;;;;;;8366371;28;20185;-69
2023/03/06 08:06:05;;;;;;;11.03;6.20;;;3.10;1.00;;;;;;8365566;28;20213;-69
2023/03/06 08:10:06;;;;;;;8.77;6.63;;;3.30;25.60;;;;;;8364738;28;20528;-69
2023/03/06 08:14:07;;;;;;;8.80;6.50;;;3.40;1.00;;;;;;8361233;28;20259;-68
2023/03/06 08:18:08;;;;;;;7.60;6.27;;;3.60;1.00;;;;;;8363357;28;20577;-69
2023/03/06 08:22:10;;;;;;;8.87;6.90;;;3.70;99.90;;;;;;8361172;28;20608;-68
2023/03/06 08:26:18;;;;;;;8.77;6.13;;;3.80;99.90;;;;;;8360842;28;20201;-68
2023/03/06 08:30:20;;;;;;;9.83;6.50;;;3.80;99.90;;;;;;8363942;28;20232;-68
2023/03/06 08:34:25;;;;;;;10.00;6.47;;;3.80;99.90;;;;;;8362819;28;20189;-68
2023/03/06 08:38:26;;;;;;;9.23;6.50;;;3.80;99.90;;;;;;8361878;28;20214;-68
2023/03/06 08:42:26;;;;;;;9.10;6.40;;;3.90;99.90;;;;;;8364195;28;20298;-68
2023/03/06 08:46:28;;;;;;;9.10;5.90;;;3.90;99.90;;;;;;8362385;28;20223;-68
2023/03/06 08:50:29;;;;;;;10.07;7.17;;;4.00;99.90;;;;;;8362536;28;20188;-69
2023/03/06 08:54:31;;;;;;;8.63;6.73;;;4.10;99.90;;;;;;8361114;28;20197;-68
2023/03/06 08:58:32;;;;;;;9.27;6.73;;;4.30;99.90;;;;;;8360758;28;20231;-68
2023/03/06 09:02:33;;;;;;;11.10;6.30;;;4.60;99.90;;;;;;8362783;28;20188;-68
2023/03/06 09:06:40;;;;;;;8.77;6.13;;;4.80;1.00;;;;;;8363060;28;20205;-68
2023/03/06 09:10:47;;;;;;;8.90;6.70;;;4.70;90.60;;;;;;8373113;28;20182;-66
2023/03/06 09:14:48;;;;;;;10.73;7.07;;;4.80;1.00;;;;;;8373794;28;20188;-68
2023/03/06 09:18:51;;;;;;;8.57;6.60;;;5.00;1.00;;;;;;8365974;28;20594;-68
2023/03/06 09:22:52;;;;;;;11.10;7.30;;;5.10;1.00;;;;;;8363786;28;20513;-68
2023/03/06 09:26:53;;;;;;;8.63;6.90;;;5.20;1.00;;;;;;8366685;28;20525;-68
2023/03/06 09:30:54;;;;;;;11.00;7.00;;;5.50;1.00;;;;;;8364839;28;20246;-68
2023/03/06 09:34:55;;;;;;;10.20;7.50;;;5.70;1.00;;;;;;8363241;28;20209;-68
2023/03/06 09:38:56;;;;;;;11.10;6.73;;;5.80;99.90;;;;;;8364894;28;20193;-68
2023/03/06 09:42:56;;;;;;;8.40;7.00;;;5.60;1.00;;;;;;8362881;28;20233;-68
2023/03/06 09:47:37;;;;;;;10.77;7.10;;;5.60;1.00;;;;;;8369195;28;20394;-68
2023/03/06 09:52:01;;;;;;;8.43;6.40;;;5.30;99.90;;;;;;8363934;28;20238;-68
2023/03/06 09:56:11;;;;;;;8.90;6.40;;;5.30;1.00;;;;;;8365238;28;20261;-67
2023/03/06 10:00:15;;;;;;;9.23;6.87;;;5.70;1.00;;;;;;8382027;28;20185;-67
2023/03/06 10:04:40;;;;;;;10.63;6.90;;;5.90;99.90;;;;;;8376114;28;20215;-71
2023/03/06 10:08:41;;;;;;;8.27;6.60;;;6.20;99.90;;;;;;8361034;28;20260;-68
2023/03/06 10:12:54;;;;;;;7.53;6.17;;;6.30;99.90;;;;;;8362519;28;20193;-68
2023/03/06 10:16:55;;;;;;;8.00;5.97;;;6.40;99.90;;;;;;8367686;28;20199;-68
2023/03/06 10:21:03;;;;;;;7.17;5.97;;;6.00;99.90;;;;;;8365790;28;20181;-68
2023/03/06 10:25:14;;;;;;;7.57;5.77;;;5.80;99.90;;;;;;8367031;28;20243;-69
2023/03/06 10:29:38;;;;;;;8.60;6.00;;;6.00;99.90;;;;;;8380907;28;20423;-68
2023/03/06 10:33:54;;;;;;;8.63;6.13;;;6.30;99.90;;;;;;8362228;28;20209;-69
2023/03/06 10:38:03;;;;;;;9.50;5.50;;;6.50;99.90;;;;;;8368415;28;20201;-68
2023/03/06 10:42:04;;;;;;;8.40;5.90;;;6.70;99.90;;;;;;8361796;28;20272;-69
2023/03/06 10:46:06;;;;;;;9.63;6.70;;;6.80;99.90;;;;;;8379421;28;20205;-68
2023/03/06 10:50:25;;;;;;;10.83;5.87;;;6.40;99.90;;;;;;8360936;28;20174;-68
2023/03/06 10:54:32;;;;;;;8.63;7.07;;;6.20;99.90;;;;;;8363419;28;20190;-69
2023/03/06 10:58:33;;;;;;;7.50;6.00;;;6.40;99.90;;;;;;8375967;28;20219;-68
2023/03/06 11:02:37;;;;;;;9.53;6.60;;;6.40;99.90;;;;;;8363924;28;20185;-68
2023/03/06 11:06:38;;;;;;;9.57;6.60;;;6.70;99.90;;;;;;8360399;28;20257;-69
2023/03/06 11:10:39;;;;;;;8.73;6.60;;;6.90;99.90;;;;;;8362548;28;20188;-68
2023/03/06 11:14:40;;;;;;;9.77;5.63;;;6.40;99.90;;;;;;8365827;28;20211;-68
2023/03/06 11:18:53;;;;;;;9.90;6.90;;;6.50;99.90;;;;;;8360466;28;20276;-68
2023/03/06 11:22:57;;;;;;;10.73;7.20;;;6.70;99.90;;;;;;8370001;28;20175;-68
2023/03/06 11:27:04;;;;;;;9.80;7.17;;;6.90;99.90;;;;;;8367708;28;20231;-68
2023/03/06 11:31:22;;;;;;;8.70;6.93;;;7.20;99.90;;;;;;8366537;28;20188;-68
2023/03/06 11:35:34;;;;;;;8.30;6.20;;;7.20;99.90;;;;;;8365641;28;20209;-69
2023/03/06 11:40:00;;;;;;;8.43;6.50;;;6.90;99.90;;;;;;8364643;28;20184;-68
2023/03/06 11:44:27;;;;;;;8.87;6.77;;;6.70;99.90;;;;;;8358079;28;20202;-69
2023/03/06 11:48:34;;;;;;;10.10;7.03;;;6.60;99.90;;;;;;8367178;28;20286;-69
2023/03/06 11:52:58;;;;;;;9.00;6.10;;;6.40;99.90;;;;;;8365547;28;20252;-68
2023/03/06 11:57:16;;;;;;;8.40;6.47;;;6.10;99.90;;;;;;8362634;28;20178;-67
2023/03/06 12:01:20;;;;;;;7.47;5.83;;;6.00;99.90;;;;;;8362959;28;20197;-68
2023/03/06 12:05:25;;;;;;;10.20;7.00;;;6.10;99.90;;;;;;8362968;28;20202;-68
2023/03/06 12:09:48;;;;;;;9.20;6.87;;;6.20;99.90;;;;;;8366346;28;20790;-68
2023/03/06 12:13:57;;;;;;;9.40;7.13;;;6.20;99.90;;;;;;8361848;28;20181;-68
2023/03/06 12:18:29;;;;;;;9.87;6.57;;;6.10;99.90;;;;;;8363628;28;20217;-69
2023/03/06 12:22:51;;;;;;;7.90;5.80;;;6.20;99.90;;;;;;8366152;28;20213;-68
2023/03/06 12:27:13;;;;;;;7.97;6.07;;;6.50;99.90;;;;;;8367849;28;20346;-68
2023/03/06 12:31:48;;;;;;;7.43;6.27;;;6.60;99.90;;;;;;8364123;28;20178;-68
2023/03/06 12:36:07;;;;;;;8.13;6.17;;;6.50;99.90;;;;;;8373092;28;20212;-69
2023/03/06 12:40:14;;;;;;;7.93;6.27;;;6.50;99.90;;;;;;8364996;28;20656;-68
2023/03/06 12:44:49;;;;;;;9.13;5.57;;;6.30;99.90;;;;;;8380825;28;20194;-68
2023/03/06 12:48:55;;;;;;;10.33;5.57;;;6.50;99.90;;;;;;8364270;28;20245;-68
2023/03/06 12:53:00;;;;;;;8.50;5.67;;;6.70;99.90;;;;;;8379351;28;20182;-68
2023/03/06 12:57:01;;;;;;;6.97;5.10;;;6.80;99.90;;;;;;8372302;28;20189;-68
2023/03/06 13:01:25;;;;;;;9.30;6.40;;;6.90;99.90;;;;;;8365042;28;20212;-68
2023/03/06 13:05:35;;;;;;;9.10;6.43;;;6.50;99.90;;;;;;8361614;28;20201;-68
2023/03/06 13:09:43;;;;;;;8.73;6.60;;;6.50;99.90;;;;;;8361824;28;20181;-69
2023/03/06 13:13:46;;;;;;;8.20;6.20;;;6.50;99.90;;;;;;8362622;28;20694;-68
2023/03/06 13:17:47;;;;;;;9.67;6.53;;;6.60;99.90;;;;;;8363889;28;20188;-69
2023/03/06 13:21:54;;;;;;;10.87;7.10;;;6.40;99.90;;;;;;8363030;28;20177;-69
2023/03/06 13:26:03;;;;;;;9.47;6.77;;;6.40;99.90;;;;;;8361302;28;20217;-68
2023/03/06 13:30:21;;;;;;;8.60;6.20;;;6.40;99.90;;;;;;8360475;28;20658;-68
2023/03/06 13:34:31;;;;;;;9.13;6.53;;;6.50;99.90;;;;;;8359136;28;20253;-71
2023/03/06 13:38:41;;;;;;;10.37;6.70;;;6.50;99.90;;;;;;8368455;28;20221;-68
2023/03/06 13:42:42;;;;;;;10.63;7.57;;;6.70;99.90;;;;;;8367324;28;20186;-69
2023/03/06 13:47:03;;;;;;;10.33;7.37;;;6.70;99.90;;;;;;8360647;28;20201;-68
2023/03/06 13:51:23;;;;;;;11.27;6.93;;;6.70;99.90;;;;;;8362731;28;20187;-68
2023/03/06 13:55:50;;;;;;;11.23;7.77;;;6.70;99.90;;;;;;8360780;28;20598;-69
2023/03/06 14:00:29;;;;;;;10.33;6.60;;;6.60;99.90;;;;;;8362091;28;20185;-68
2023/03/06 14:04:52;;;;;;;9.40;6.90;;;6.60;99.90;;;;;;8360120;28;20201;-68
2023/03/06 14:08:53;;;;;;;12.13;7.70;;;6.70;99.90;;;;;;8367167;28;20319;-68
2023/03/06 14:13:01;;;;;;;9.57;7.13;;;6.80;99.90;;;;;;8360369;28;20230;-68
2023/03/06 14:17:04;;;;;;;10.30;7.83;;;6.90;99.90;;;;;;8359491;28;20284;-68
2023/03/06 14:21:29;;;;;;;10.63;7.97;;;6.70;99.90;;;;;;8360953;28;20181;-71
2023/03/06 14:25:30;;;;;;;9.30;6.80;;;6.20;99.90;;;;;;8363576;28;20208;-68
2023/03/06 14:29:32;;;;;;;10.07;7.33;;;6.00;99.90;;;;;;8360601;28;20233;-68
2023/03/06 14:33:55;;;;;;;11.33;7.27;;;6.00;99.90;;;;;;8365935;28;20193;-67
2023/03/06 14:38:00;;;;;;;10.40;6.97;;;6.20;99.90;;;;;;8363818;28;20201;-68
2023/03/06 14:42:05;;;;;;;11.90;7.73;;;6.00;99.90;;;;;;8361040;28;20201;-68
2023/03/06 14:46:06;;;;;;;10.57;7.00;;;5.80;99.90;;;;;;8357919;28;20205;-69
2023/03/06 14:50:31;;;;;;;9.80;6.73;;;5.40;99.90;;;;;;8359512;28;20174;-66
2023/03/06 14:54:38;;;;;;;9.10;7.03;;;5.30;99.90;;;;;;8357704;28;20221;-68
2023/03/06 14:58:58;;;;;;;11.77;7.50;;;5.00;99.90;;;;;;8367336;28;20189;-68
2023/03/06 15:02:59;;;;;;;8.53;6.07;;;4.80;1.00;;;;;;8370169;28;20185;-68
2023/03/06 15:07:00;;;;;;;11.07;7.47;;;5.00;1.00;;;;;;8369879;28;20214;-72
2023/03/06 15:11:04;;;;;;;16.83;9.03;;;5.20;1.00;;;;;;8377599;28;20177;-73
2023/03/06 15:15:09;;;;;;;12.17;8.60;;;5.30;1.00;;;;;;8372055;28;20185;-73
2023/03/06 15:19:22;;;;;;;11.43;8.57;;;5.40;1.00;;;;;;8380866;28;20414;-74
2023/03/06 15:23:33;;;;;;;11.60;8.57;;;5.50;1.00;;;;;;8384393;28;20231;-74
2023/03/06 15:27:34;;;;;;;13.50;8.17;;;5.50;1.00;;;;;;8383472;28;20274;-73
2023/03/06 15:31:40;;;;;;;12.83;8.97;;;5.50;1.00;;;;;;8375716;28;20265;-73
2023/03/06 15:36:00;;;;;;;13.53;9.30;;;5.40;1.00;;;;;;8379700;28;20205;-73
2023/03/06 15:40:10;;;;;;;15.07;9.23;;;5.40;1.00;;;;;;8375234;28;20185;-72
2023/03/06 15:44:14;;;;;;;13.47;8.27;;;5.40;1.00;;;;;;8373270;28;20259;-74
2023/03/06 15:48:17;;;;;;;12.27;8.37;;;5.20;1.00;;;;;;8377277;28;20178;-72
2023/03/06 15:52:19;;;;;;;10.70;7.73;;;4.90;1.00;;;;;;8379057;28;20182;-73
2023/03/06 15:56:28;;;;;;;13.50;8.23;;;4.70;1.00;;;;;;8374095;28;20251;-73
2023/03/06 16:00:33;;;;;;;11.63;8.10;;;4.50;1.00;;;;;;8387054;28;20192;-73
2023/03/06 16:04:33;;;;;;;11.70;7.97;;;4.40;1.00;;;;;;8389551;28;20212;-74
2023/03/06 16:08:34;;;;;;;12.67;7.60;;;4.20;33.40;;;;;;8369636;28;20178;-74
2023/03/06 16:12:35;;;;;;;11.90;8.50;;;4.20;58.20;;;;;;8367656;28;20190;-74
2023/03/06 16:16:36;;;;;;;12.07;7.50;;;4.10;80.80;;;;;;8371019;28;20189;-74
2023/03/06 16:20:38;;;;;;;12.17;7.83;;;4.00;99.60;;;;;;8367994;28;20181;-72
2023/03/06 16:24:42;;;;;;;12.63;7.93;;;3.90;87.00;;;;;;8376041;28;20252;-72
2023/03/06 16:28:44;;;;;;;11.20;7.77;;;3.80;99.90;;;;;;8369125;28;20264;-72
2023/03/06 16:32:45;;;;;;;11.87;8.47;;;3.70;99.90;;;;;;8364649;28;20268;-74
2023/03/06 16:36:47;;;;;;;11.73;8.23;;;3.70;99.90;;;;;;8368458;28;20200;-73
2023/03/06 16:40:48;;;;;;;16.07;9.77;;;3.60;99.90;;;;;;8375479;28;20188;-73
2023/03/06 16:44:49;;;;;;;13.80;8.57;;;3.50;99.90;;;;;;8366575;28;20272;-72
2023/03/06 16:48:51;;;;;;;13.33;8.63;;;3.40;99.90;;;;;;8370543;28;20181;-73
2023/03/06 16:52:54;;;;;;;12.97;8.23;;;3.40;99.90;;;;;;8370692;28;20249;-72
2023/03/06 16:56:54;;;;;;;14.40;9.33;;;3.30;99.90;;;;;;8371418;28;20268;-74
2023/03/06 17:00:56;;;;;;;10.63;7.50;;;3.30;1.00;;;;;;8379603;28;20185;-72
2023/03/06 17:04:57;;;;;;;9.90;6.80;;;3.10;1.00;;;;;;8373936;28;20197;-72
2023/03/06 17:08:58;;;;;;;6.97;4.97;;;2.80;99.90;;;;;;8381914;28;20265;-72
2023/03/06 17:12:59;;;;;;;12.47;7.57;;;2.50;36.50;;;;;;8368391;28;20253;-68
2023/03/06 17:17:00;;;;;;;6.83;4.57;;;2.40;99.90;;;;;;8362045;28;20185;-68
2023/03/06 17:21:01;;;;;;;8.17;5.33;;;2.20;99.90;;;;;;8364656;28;20185;-68
2023/03/06 17:25:05;;;;;;;19.00;9.90;;;2.00;1.00;;;;;;8365946;28;20197;-68
2023/03/06 17:29:08;;;;;;;7.53;5.57;;;1.90;99.90;;;;;;8367132;28;20278;-68
2023/03/06 17:33:09;;;;;;;10.33;7.03;;;1.70;1.00;;;;;;8361857;28;20265;-68
2023/03/06 17:37:09;;;;;;;10.13;7.23;;;1.50;99.90;;;;;;8363838;28;20205;-68
2023/03/06 17:41:12;;;;;;;13.50;7.37;;;1.40;1.00;;;;;;8364287;28;20177;-68
2023/03/06 17:45:13;;;;;;;16.10;10.23;;;1.20;99.90;;;;;;8362822;28;20200;-68
2023/03/06 17:49:18;;;;;;;11.67;8.20;;;1.20;1.00;;;;;;8365421;28;20202;-68
2023/03/06 17:53:19;;;;;;;10.70;6.83;;;1.10;1.00;;;;;;8361278;28;20188;-69
2023/03/06 17:57:19;;;;;;;16.37;9.07;;;1.00;99.90;;;;;;8368011;28;20190;-69
2023/03/06 18:01:26;;;;;;;12.73;7.40;;;0.90;99.90;;;;;;8367231;28;20181;-69
2023/03/06 18:05:26;;;;;;;12.93;7.83;;;0.80;71.90;;;;;;8358093;28;20202;-70
2023/03/06 18:09:28;;;;;;;19.00;11.03;;;0.80;99.90;;;;;;8365678;28;20200;-69
2023/03/06 18:13:30;;;;;;;13.17;9.10;;;0.70;1.00;;;;;;8363385;28;20181;-70
2023/03/06 18:17:31;;;;;;;15.77;10.57;;;0.70;1.00;;;;;;8367055;28;20194;-68
2023/03/06 18:21:32;;;;;;;12.17;7.90;;;0.60;97.70;;;;;;8366283;28;20196;-69
2023/03/06 18:25:33;;;;;;;10.40;6.90;;;0.60;99.90;;;;;;8367055;28;20210;-69
2023/03/06 18:29:33;;;;;;;12.33;8.27;;;0.60;99.90;;;;;;8378030;28;20185;-67
2023/03/06 18:33:34;;;;;;;18.73;8.90;;;0.50;99.90;;;;;;8369617;28;20215;-67
2023/03/06 18:37:35;;;;;;;12.80;7.13;;;0.50;99.90;;;;;;8382748;28;20216;-69
2023/03/06 18:41:36;;;;;;;42.77;18.17;;;0.50;99.90;;;;;;8372130;28;20201;-69
2023/03/06 18:45:38;;;;;;;27.80;13.90;;;0.60;99.90;;;;;;8370306;28;20205;-69
2023/03/06 18:49:39;;;;;;;41.43;18.73;;;0.60;99.90;;;;;;8366976;28;20286;-69
2023/03/06 18:53:40;;;;;;;52.30;28.53;;;0.70;99.90;;;;;;8371206;28;20196;-69
2023/03/06 18:57:41;;;;;;;25.97;15.47;;;0.80;99.90;;;;;;8370781;28;20196;-69
2023/03/06 19:01:44;;;;;;;39.47;19.20;;;0.80;99.90;;;;;;8377371;28;20194;-69
2023/03/06 19:05:46;;;;;;;24.53;15.57;;;0.90;99.90;;;;;;8366796;28;20213;-69
2023/03/06 19:09:48;;;;;;;19.13;11.80;;;0.90;99.90;;;;;;8372374;28;20224;-70
2023/03/06 19:13:49;;;;;;;17.43;10.73;;;0.90;99.90;;;;;;8370826;28;20193;-69
2023/03/06 19:17:50;;;;;;;15.70;8.60;;;1.00;99.90;;;;;;8369381;28;20354;-68
2023/03/06 19:21:52;;;;;;;12.70;8.03;;;0.90;47.00;;;;;;8371403;28;20189;-68
2023/03/06 19:25:57;;;;;;;15.60;8.60;;;0.90;1.00;;;;;;8366471;28;20208;-69
2023/03/06 19:29:58;;;;;;;16.00;8.93;;;0.90;1.00;;;;;;8371587;28;20174;-70
2023/03/06 19:33:59;;;;;;;17.17;10.67;;;0.90;99.90;;;;;;8369606;28;20188;-69
2023/03/06 19:38:00;;;;;;;17.40;11.53;;;0.90;99.90;;;;;;8368418;28;20545;-69
2023/03/06 19:42:03;;;;;;;17.33;11.03;;;0.90;99.90;;;;;;8367727;28;20227;-69
2023/03/06 19:46:04;;;;;;;10.77;7.57;;;0.90;96.80;;;;;;8366693;28;20201;-69
2023/03/06 19:50:05;;;;;;;8.60;6.73;;;0.90;39.80;;;;;;8363682;28;20335;-69
2023/03/06 19:54:06;;;;;;;9.40;6.50;;;0.90;1.00;;;;;;8365263;28;20170;-70
2023/03/06 19:58:07;;;;;;;10.13;6.27;;;0.90;1.00;;;;;;8366778;28;20236;-69
2023/03/06 20:02:11;;;;;;;7.87;5.63;;;0.90;1.00;;;;;;8373399;28;20675;-69
2023/03/06 20:06:14;;;;;;;9.20;6.00;;;0.90;1.00;;;;;;8372663;28;20212;-70
2023/03/06 20:10:16;;;;;;;9.73;6.10;;;0.90;99.90;;;;;;8370181;28;20174;-69
2023/03/06 20:14:17;;;;;;;6.67;4.93;;;0.90;99.90;;;;;;8370184;28;20181;-69
2023/03/06 20:18:18;;;;;;;8.33;6.40;;;0.90;99.90;;;;;;8368904;28;20182;-69
2023/03/06 20:22:19;;;;;;;9.27;7.03;;;0.80;99.90;;;;;;8362956;28;20192;-69
2023/03/06 20:26:20;;;;;;;12.50;7.67;;;0.90;99.90;;;;;;8365081;28;20292;-69
2023/03/06 20:30:23;;;;;;;10.83;7.60;;;0.80;99.90;;;;;;8364806;28;20177;-70
2023/03/06 20:34:24;;;;;;;13.03;8.20;;;0.80;99.90;;;;;;8366225;28;20457;-69
2023/03/06 20:38:27;;;;;;;12.37;7.53;;;0.80;12.10;;;;;;8366229;28;20193;-70
2023/03/06 20:42:28;;;;;;;13.27;7.70;;;0.80;1.00;;;;;;8370634;28;20193;-69
2023/03/06 20:46:29;;;;;;;10.93;7.03;;;0.80;99.90;;;;;;8363624;28;20224;-69
2023/03/06 20:50:30;;;;;;;12.03;8.27;;;0.80;99.90;;;;;;8360144;28;20328;-69
2023/03/06 20:54:31;;;;;;;12.73;7.70;;;0.70;99.90;;;;;;8365304;28;20178;-70
2023/03/06 20:58:32;;;;;;;12.17;7.17;;;0.70;99.90;;;;;;8364032;28;20189;-70
2023/03/06 21:02:33;;;;;;;14.37;8.40;;;0.70;99.90;;;;;;8366351;28;20331;-69
2023/03/06 21:06:33;;;;;;;13.03;8.37;;;0.70;99.90;;;;;;8362359;28;20216;-69
2023/03/06 21:10:36;;;;;;;12.30;7.80;;;0.70;99.90;;;;;;8364908;28;20186;-69
2023/03/06 21:14:37;;;;;;;14.77;8.03;;;0.70;99.90;;;;;;8366009;28;20177;-69
2023/03/06 21:18:38;;;;;;;12.97;6.80;;;0.60;71.90;;;;;;8362764;28;20216;-69